Terminal Aerodrome Forecast
Issued by NWS

Home | Current Version | Previous Version | Text Only | Print | Product List | Glossary On
Versions: 1 2 3 4 5 6 7 8 9 10 11 12 13 14 15 16 17 18 19 20 21 22 23 24 25 26 27 28 29 30 31 32 33 34
000
FTUS45 KGGW 301700
TAFOLF
TAF
KOLF 301732Z 3018/3118 11012G20KT P6SM BKN090
     FM310000 12015KT P6SM -SHRA BKN060
     FM310800 11012KT P6SM VCSH OVC045
     FM311200 10010KT P6SM BKN080=

USA.gov is the U.S. government's official web portal to all federal, state and local government web resources and services.